Hughes, North Carolina
Current Conditions -  °F | °C
As of 3:15 AM on Tuesday 27 Jan 2015 (Local Time) from KTNB Reporting Station
Overcast Overcast  
Wind Chill:   Ceiling: 1600
Heat Index: 22°   Visibility: 10mi
Dew Point: 16°   Wind: 22mph
Humidity: 77%   Direction: 300°WNW
Pressure: 29.67"   Gusts: 37mph
Location:  36.0227°N, 81.9499°W
Report Text: KTNB 270815Z AUTO 30019G32KT 10SM OVC016 M06/M09 A2967 RMK AO2 T10561090
Loading
Personal Weather Stations






























Interactive Weather Map New forecast layout! Learn more

10-Day Weather Forecast

Advertisements
Track Severe Weather on mobile